Time;durP1;ratioP1;P1;durP2;ratioP2;P2;SDS_P1;SDS_P2;PMS_P1;PMS_P2;Temp;Humidity;BMP_temperature;BMP_pressure;BME280_temperature;BME280_humidity;BME280_pressure;Samples;Min_cycle;Max_cycle;Signal;HPM_P1;HPM_P2
2022/11/22 00:00:49;;;;;;;3.70;2.03;;;;;;;9.91;66.55;99058.47;5141841;27;20047;-67
2022/11/22 00:03:16;;;;;;;6.30;2.10;;;;;;;9.90;66.11;99056.84;5144240;27;20595;-67
2022/11/22 00:05:44;;;;;;;5.80;1.80;;;;;;;9.89;66.17;99063.28;5138474;27;20078;-67
2022/11/22 00:08:12;;;;;;;7.32;2.45;;;;;;;9.89;66.46;99063.28;5131268;27;20047;-67
2022/11/22 00:10:40;;;;;;;6.60;2.00;;;;;;;9.90;66.22;99067.59;5140088;27;20047;-67
2022/11/22 00:13:08;;;;;;;5.47;2.08;;;;;;;9.89;66.77;99068.66;5143451;27;20043;-67
2022/11/22 00:15:35;;;;;;;2.88;1.70;;;;;;;9.88;66.75;99062.47;5142084;27;20072;-67
2022/11/22 00:18:05;;;;;;;5.22;2.33;;;;;;;9.87;66.40;99054.69;5143539;27;20130;-66
2022/11/22 00:20:33;;;;;;;4.22;1.98;;;;;;;9.87;66.84;99065.41;5145181;27;20114;-66
2022/11/22 00:23:01;;;;;;;5.57;2.28;;;;;;;9.87;66.83;99073.47;5142416;27;20451;-67
2022/11/22 00:25:29;;;;;;;6.07;2.35;;;;;;;9.87;66.65;99082.31;5144337;27;20107;-67
2022/11/22 00:27:56;;;;;;;3.92;1.88;;;;;;;9.88;66.93;99077.75;5142591;27;20483;-67
2022/11/22 00:30:24;;;;;;;3.67;2.28;;;;;;;9.86;66.35;99069.97;5125242;28;20055;-67
2022/11/22 00:32:52;;;;;;;6.57;2.05;;;;;;;9.85;66.86;99076.41;5140726;27;20054;-67
2022/11/22 00:35:21;;;;;;;3.90;1.77;;;;;;;9.82;66.72;99071.56;5144897;27;20067;-67
2022/11/22 00:37:49;;;;;;;3.97;1.98;;;;;;;9.86;66.40;99082.59;5143214;27;20082;-66
2022/11/22 00:40:17;;;;;;;3.83;1.85;;;;;;;9.87;66.51;99071.59;5144744;27;20083;-67
2022/11/22 00:42:44;;;;;;;5.88;1.90;;;;;;;9.86;66.73;99075.34;5144104;27;20086;-67
2022/11/22 00:45:12;;;;;;;4.72;1.70;;;;;;;9.85;66.52;99071.03;5141928;27;20362;-67
2022/11/22 00:47:40;;;;;;;3.30;1.92;;;;;;;9.76;66.77;99061.88;5136077;27;20045;-66
2022/11/22 00:50:09;;;;;;;5.70;2.55;;;;;;;9.83;66.75;99073.19;5140146;27;20050;-67
2022/11/22 00:52:38;;;;;;;5.45;1.75;;;;;;;9.83;66.52;99069.69;5140198;27;20051;-68
2022/11/22 00:55:07;;;;;;;5.32;1.90;;;;;;;9.78;66.34;99065.09;5142768;27;20052;-67
2022/11/22 00:57:34;;;;;;;5.13;1.70;;;;;;;9.79;66.88;99067.53;5143868;27;20055;-67
2022/11/22 01:00:02;;;;;;;8.65;2.00;;;;;;;9.79;66.18;99064.84;5143116;27;20043;-68
2022/11/22 01:02:30;;;;;;;3.63;1.77;;;;;;;9.78;66.46;99062.41;5133029;27;20043;-68
2022/11/22 01:04:58;;;;;;;4.10;1.83;;;;;;;9.78;66.54;99065.09;5136699;27;20065;-68
2022/11/22 01:07:26;;;;;;;3.38;1.75;;;;;;;9.77;66.78;99069.66;5137746;27;20107;-68
2022/11/22 01:09:55;;;;;;;7.63;2.38;;;;;;;9.77;66.74;99080.41;5137401;27;20051;-68
2022/11/22 01:12:22;;;;;;;5.20;1.80;;;;;;;9.77;66.90;99076.91;5144905;27;20114;-68
2022/11/22 01:14:50;;;;;;;6.20;1.88;;;;;;;9.74;66.66;99077.41;5142267;27;20062;-68
2022/11/22 01:17:18;;;;;;;5.25;1.80;;;;;;;9.74;66.92;99086.28;5142849;27;20043;-68
2022/11/22 01:19:46;;;;;;;4.05;1.73;;;;;;;9.74;66.74;99082.78;5133842;27;20053;-67
2022/11/22 01:22:13;;;;;;;4.43;1.90;;;;;;;9.73;66.42;99092.72;5144462;27;20047;-67
2022/11/22 01:24:41;;;;;;;4.20;1.80;;;;;;;9.72;66.42;99090.28;5139310;27;20447;-67
2022/11/22 01:27:10;;;;;;;5.85;1.83;;;;;;;9.71;66.69;99086.78;5141431;27;20078;-68
2022/11/22 01:29:38;;;;;;;4.22;1.80;;;;;;;9.69;66.43;99085.44;5127058;27;20055;-66
2022/11/22 01:32:06;;;;;;;6.47;1.88;;;;;;;9.70;66.43;99092.41;5134822;27;20047;-67
2022/11/22 01:34:33;;;;;;;3.63;1.50;;;;;;;9.70;66.21;99095.91;5140518;27;20115;-67
2022/11/22 01:37:01;;;;;;;5.25;1.77;;;;;;;9.68;66.23;99090.00;5144116;27;20134;-67
2022/11/22 01:39:29;;;;;;;4.45;1.85;;;;;;;9.70;67.03;99092.41;5132647;27;20150;-67
2022/11/22 01:41:57;;;;;;;3.05;1.33;;;;;;;9.69;66.51;99096.16;5144144;27;20471;-67
2022/11/22 01:44:28;;;;;;;6.85;2.33;;;;;;;9.68;66.29;99103.41;5130215;27;20043;-66
2022/11/22 01:46:59;;;;;;;7.43;2.00;;;;;;;9.67;66.75;99098.31;5142299;27;20138;-67
2022/11/22 01:49:30;;;;;;;9.73;2.30;;;;;;;9.67;66.54;99109.03;5142386;27;20070;-67
2022/11/22 01:52:02;;;;;;;4.65;1.77;;;;;;;9.64;66.48;99107.66;5139517;27;20112;-67
2022/11/22 01:54:36;;;;;;;7.22;1.80;;;;;;;9.65;66.63;99111.16;5128489;27;20042;-67
2022/11/22 01:57:07;;;;;;;9.85;3.03;;;;;;;9.66;66.53;99118.16;5140415;28;20043;-67
2022/11/22 01:59:39;;;;;;;7.53;2.10;;;;;;;9.64;66.47;99123.75;5142597;28;20047;-67
2022/11/22 02:02:07;;;;;;;6.10;2.53;;;;;;;9.63;66.31;99111.41;5138240;28;20046;-67
2022/11/22 02:04:37;;;;;;;4.28;1.88;;;;;;;9.62;66.59;99109.00;5125770;28;20053;-67
2022/11/22 02:07:11;;;;;;;5.90;1.98;;;;;;;9.63;66.27;99119.47;5143409;28;20046;-67
2022/11/22 02:09:40;;;;;;;7.38;2.13;;;;;;;9.62;66.71;99120.53;5142329;28;20050;-67
2022/11/22 02:12:09;;;;;;;7.53;2.35;;;;;;;9.57;66.60;99108.97;5141231;28;20050;-67
2022/11/22 02:14:40;;;;;;;9.07;2.30;;;;;;;9.60;66.54;99111.94;5143486;28;20039;-67
2022/11/22 02:17:08;;;;;;;7.95;2.30;;;;;;;9.60;66.61;99105.75;5143684;28;20070;-67
2022/11/22 02:19:41;;;;;;;7.95;2.28;;;;;;;9.60;66.79;99116.50;5135291;28;20153;-67
2022/11/22 02:22:23;;;;;;;8.13;2.45;;;;;;;9.60;66.44;99124.53;5122530;28;20139;-67
2022/11/22 02:24:55;;;;;;;6.75;2.40;;;;;;;9.58;66.49;99122.13;5126889;28;20043;-67
2022/11/22 02:27:25;;;;;;;8.65;2.53;;;;;;;9.58;66.26;99118.63;5133844;28;20108;-67
2022/11/22 02:29:52;;;;;;;7.60;2.00;;;;;;;9.57;66.43;99125.84;5140263;28;20074;-67
2022/11/22 02:32:20;;;;;;;10.13;1.77;;;;;;;9.56;65.90;99118.88;5143760;28;20066;-67
2022/11/22 02:34:50;;;;;;;8.80;2.65;;;;;;;9.58;66.77;99124.00;5140768;28;20217;-67
2022/11/22 02:37:22;;;;;;;9.95;2.88;;;;;;;9.57;65.83;99125.84;5142794;28;20051;-68
2022/11/22 02:39:56;;;;;;;7.57;2.03;;;;;;;9.56;65.90;99134.16;5133896;28;20138;-67
2022/11/22 02:42:26;;;;;;;10.73;2.67;;;;;;;9.55;66.42;99129.88;5141656;28;20150;-67
2022/11/22 02:44:53;;;;;;;8.13;2.10;;;;;;;9.56;66.07;99126.94;5142879;28;20496;-67
2022/11/22 02:47:21;;;;;;;7.30;2.17;;;;;;;9.56;66.07;99134.97;5140812;28;20575;-68
2022/11/22 02:49:49;;;;;;;6.93;2.33;;;;;;;9.55;66.14;99141.41;5143639;28;20047;-67
2022/11/22 02:52:17;;;;;;;8.05;2.15;;;;;;;9.56;65.82;99144.88;5143542;28;20059;-68
2022/11/22 02:54:45;;;;;;;9.60;2.95;;;;;;;9.48;66.23;99130.09;5140940;28;20129;-67
2022/11/22 02:57:13;;;;;;;9.30;3.00;;;;;;;9.54;66.29;99134.41;5135797;28;20106;-68
2022/11/22 02:59:42;;;;;;;9.48;2.38;;;;;;;9.54;66.37;99141.66;5142112;27;20054;-66
2022/11/22 03:02:10;;;;;;;12.90;2.80;;;;;;;9.53;65.85;99140.84;5131063;28;20062;-67
2022/11/22 03:04:37;;;;;;;8.15;2.30;;;;;;;9.54;66.15;99145.16;5131735;28;20083;-67
2022/11/22 03:07:05;;;;;;;10.43;2.45;;;;;;;9.54;66.21;99139.78;5141920;27;20049;-67
2022/11/22 03:09:33;;;;;;;11.40;2.00;;;;;;;9.54;65.84;99138.97;5143292;27;20055;-68
2022/11/22 03:12:01;;;;;;;9.02;2.58;;;;;;;9.53;66.01;99140.84;5143348;27;20130;-68
2022/11/22 03:14:28;;;;;;;5.50;2.08;;;;;;;9.51;65.86;99151.03;5146475;27;20536;-67
2022/11/22 03:16:57;;;;;;;7.63;1.95;;;;;;;9.51;65.87;99153.72;5142558;27;20143;-67
2022/11/22 03:19:25;;;;;;;10.55;2.15;;;;;;;9.50;66.00;99156.63;5141425;27;20078;-66
2022/11/22 03:21:53;;;;;;;6.47;2.05;;;;;;;9.50;65.70;99164.69;5146918;27;20050;-67
2022/11/22 03:24:21;;;;;;;10.98;2.67;;;;;;;9.49;66.01;99155.84;5145783;27;20070;-67
2022/11/22 03:26:50;;;;;;;8.15;2.33;;;;;;;9.48;65.57;99156.09;5142501;27;20106;-66
2022/11/22 03:29:18;;;;;;;6.75;2.42;;;;;;;9.46;66.07;99165.19;5142717;27;20114;-68
2022/11/22 03:31:45;;;;;;;11.98;3.47;;;;;;;9.46;65.79;99159.03;5138640;27;20050;-67
2022/11/22 03:34:15;;;;;;;7.45;2.28;;;;;;;9.44;65.83;99163.84;5146437;27;20071;-66
2022/11/22 03:36:43;;;;;;;7.78;2.38;;;;;;;9.42;65.61;99161.41;5129720;27;20103;-67
2022/11/22 03:39:11;;;;;;;8.60;1.88;;;;;;;9.43;65.68;99171.06;5116393;28;20483;-68
2022/11/22 03:41:38;;;;;;;8.05;2.78;;;;;;;9.42;65.81;99169.44;5124989;28;20044;-67
2022/11/22 03:44:07;;;;;;;10.27;2.50;;;;;;;9.40;66.00;99158.19;5118820;28;20072;-67
2022/11/22 03:46:34;;;;;;;7.63;2.70;;;;;;;9.41;65.20;99164.34;5108419;28;20571;-67
2022/11/22 03:49:02;;;;;;;5.68;2.35;;;;;;;9.38;65.57;99165.66;5125425;28;20505;-67
2022/11/22 03:51:31;;;;;;;5.90;1.70;;;;;;;9.39;65.96;99161.09;5126059;28;20367;-66
2022/11/22 03:53:59;;;;;;;7.50;2.10;;;;;;;9.38;65.96;99164.84;5109878;28;20573;-66
2022/11/22 03:56:26;;;;;;;7.53;2.33;;;;;;;9.39;65.63;99171.84;5113079;28;20134;-68
2022/11/22 03:58:54;;;;;;;9.35;2.10;;;;;;;9.38;65.63;99160.31;5123656;28;20071;-66
2022/11/22 04:01:22;;;;;;;9.77;2.40;;;;;;;9.37;65.61;99165.91;5109460;28;20067;-67
2022/11/22 04:03:51;;;;;;;7.53;1.85;;;;;;;9.36;65.11;99175.84;5105290;28;20147;-67
2022/11/22 04:06:18;;;;;;;10.95;2.95;;;;;;;9.34;64.97;99177.97;5115787;28;20115;-67
2022/11/22 04:08:48;;;;;;;7.15;2.03;;;;;;;9.32;65.05;99168.56;5124096;28;20107;-67
2022/11/22 04:11:15;;;;;;;12.25;2.38;;;;;;;9.30;65.60;99171.50;5124044;28;20043;-68
2022/11/22 04:16:28;;;;;;;8.65;2.08;;;;;;;9.29;65.21;99177.91;5123179;28;20054;-68
2022/11/22 04:18:56;;;;;;;9.38;2.10;;;;;;;9.29;64.77;99177.91;5120492;28;20130;-67
2022/11/22 04:21:35;;;;;;;11.15;2.38;;;;;;;9.29;64.81;99193.19;5125059;27;20043;-67
2022/11/22 04:27:03;;;;;;;9.80;2.25;;;;;;;9.26;65.25;99196.38;5030856;28;20049;-68
2022/11/22 04:29:31;;;;;;;8.60;2.78;;;;;;;9.25;64.73;99189.41;5039815;28;20057;-68
2022/11/22 04:34:45;;;;;;;6.20;2.20;;;;;;;9.24;65.31;99187.78;5041486;28;20076;-68
2022/11/22 04:37:13;;;;;;;9.15;2.92;;;;;;;9.25;65.28;99192.88;5058772;28;20072;-68
2022/11/22 04:39:42;;;;;;;6.63;1.90;;;;;;;9.24;64.53;99187.78;5060814;28;20128;-68
2022/11/22 04:44:55;;;;;;;9.18;1.90;;;;;;;9.21;65.25;99188.28;5044161;28;20049;-66
2022/11/22 04:53:01;;;;;;;8.82;2.35;;;;;;;9.17;64.46;99200.56;5054810;28;20080;-67
2022/11/22 04:55:30;;;;;;;6.65;1.75;;;;;;;9.17;64.67;99206.75;5059839;28;20063;-68
2022/11/22 04:57:57;;;;;;;9.35;2.53;;;;;;;9.17;64.57;99213.97;5060345;28;20049;-66
2022/11/22 05:00:27;;;;;;;4.85;1.88;;;;;;;9.15;65.18;99203.50;5070148;28;20070;-67
2022/11/22 05:02:55;;;;;;;9.20;2.20;;;;;;;9.16;64.40;99207.00;5123189;28;20048;-67
2022/11/22 05:05:23;;;;;;;13.50;2.33;;;;;;;9.14;64.80;99208.06;5123721;28;20429;-67
2022/11/22 05:07:51;;;;;;;8.15;2.20;;;;;;;9.14;64.90;99205.38;5116641;28;20047;-66
2022/11/22 05:10:19;;;;;;;7.95;2.65;;;;;;;9.14;64.59;99209.94;5115715;28;20043;-66
2022/11/22 05:12:55;;;;;;;6.72;2.22;;;;;;;9.12;64.40;99204.81;5122716;28;20052;-66
2022/11/22 05:15:23;;;;;;;8.40;2.33;;;;;;;9.13;64.66;99211.00;5121697;28;20059;-66
2022/11/22 05:17:51;;;;;;;8.77;1.70;;;;;;;9.03;64.75;99198.28;5123445;28;20507;-66
2022/11/22 05:20:19;;;;;;;8.95;1.90;;;;;;;9.10;64.66;99209.63;5124388;28;20048;-67
2022/11/22 05:25:32;;;;;;;8.15;2.50;;;;;;;9.09;64.73;99207.19;5120088;28;20049;-67
2022/11/22 05:28:01;;;;;;;9.00;2.35;;;;;;;9.09;64.14;99204.53;5117353;28;20120;-66
2022/11/22 05:30:29;;;;;;;8.65;2.38;;;;;;;9.09;64.38;99191.13;5118838;28;20043;-66
2022/11/22 05:32:56;;;;;;;9.30;2.42;;;;;;;9.10;64.52;99192.75;5123175;28;20090;-67
2022/11/22 05:35:24;;;;;;;8.05;3.05;;;;;;;9.09;63.82;99191.13;5124704;27;20047;-67
2022/11/22 05:37:52;;;;;;;12.52;2.17;;;;;;;9.08;64.73;99192.19;5139338;27;20043;-67
2022/11/22 05:40:19;;;;;;;8.27;2.20;;;;;;;9.06;63.91;99189.75;5141880;27;20079;-67
2022/11/22 05:42:47;;;;;;;9.60;2.00;;;;;;;9.07;63.92;99191.38;5140957;27;20074;-67
2022/11/22 05:45:17;;;;;;;7.60;1.92;;;;;;;9.07;64.63;99185.19;5143438;27;20065;-67
2022/11/22 05:47:44;;;;;;;7.20;2.05;;;;;;;9.06;64.58;99181.72;5139949;27;20043;-67
2022/11/22 05:50:13;;;;;;;7.65;2.17;;;;;;;9.05;64.14;99192.69;5139200;27;20043;-67
2022/11/22 05:52:40;;;;;;;9.88;1.92;;;;;;;9.06;64.65;99191.63;5139200;27;20557;-67
2022/11/22 05:55:08;;;;;;;5.85;1.95;;;;;;;9.04;64.27;99199.09;5142382;27;20047;-66
2022/11/22 05:57:36;;;;;;;8.20;1.63;;;;;;;9.04;63.92;99189.19;5154503;27;20078;-66
2022/11/22 06:00:05;;;;;;;8.13;2.40;;;;;;;9.04;63.88;99189.19;5138061;27;20130;-66
2022/11/22 06:02:34;;;;;;;5.90;1.83;;;;;;;9.05;64.00;99190.00;5142481;28;20061;-66
2022/11/22 06:05:02;;;;;;;5.88;2.20;;;;;;;9.05;65.03;99188.13;5138964;28;20047;-67
2022/11/22 06:07:30;;;;;;;5.93;1.65;;;;;;;9.07;64.40;99185.19;5128309;28;20044;-68
2022/11/22 06:09:57;;;;;;;8.13;1.95;;;;;;;9.08;63.59;99186.81;5132803;28;20051;-68
2022/11/22 06:12:25;;;;;;;6.32;1.75;;;;;;;9.08;64.04;99181.47;5135845;28;20114;-67
2022/11/22 06:14:53;;;;;;;10.32;2.95;;;;;;;9.09;64.00;99183.06;5141852;28;20054;-67
2022/11/22 06:17:21;;;;;;;6.00;1.50;;;;;;;9.07;64.04;99194.06;5141969;28;20356;-67
2022/11/22 06:19:50;;;;;;;4.95;1.67;;;;;;;9.21;62.90;99196.31;5134823;28;20048;-67
2022/11/22 06:22:17;;;;;;;7.28;2.20;;;;;;;9.29;63.12;99190.50;5123725;28;20048;-67
2022/11/22 06:24:45;;;;;;;7.07;1.58;;;;;;;9.39;62.68;99185.25;5135285;28;20043;-67
2022/11/22 06:27:13;;;;;;;9.27;3.28;;;;;;;9.52;62.33;99197.41;5142735;28;20125;-68
2022/11/22 06:29:41;;;;;;;7.95;1.85;;;;;;;9.66;61.68;99195.94;5126404;28;20133;-67
2022/11/22 06:32:09;;;;;;;7.75;1.85;;;;;;;9.67;62.00;99206.41;5132398;28;20091;-67
2022/11/22 06:34:36;;;;;;;7.90;2.47;;;;;;;9.68;62.07;99210.69;5135652;28;20044;-66
2022/11/22 06:37:06;;;;;;;8.02;2.20;;;;;;;9.64;61.65;99206.91;5135408;28;20062;-68
2022/11/22 06:39:33;;;;;;;10.15;2.80;;;;;;;9.55;61.95;99208.44;5141871;27;20047;-67
2022/11/22 06:42:01;;;;;;;10.23;2.00;;;;;;;9.48;62.22;99210.53;5147228;27;20062;-69
2022/11/22 06:44:29;;;;;;;4.50;1.70;;;;;;;9.42;62.28;99220.41;5134365;27;20077;-65
2022/11/22 06:46:56;;;;;;;8.70;1.67;;;;;;;9.37;62.54;99224.91;4785278;27;10000553;-68
2022/11/22 06:49:24;;;;;;;11.90;2.13;;;;;;;9.33;62.99;99221.09;5143565;27;20138;-69
2022/11/22 06:51:52;;;;;;;5.28;1.70;;;;;;;9.27;63.10;99216.75;5144294;27;20055;-69
2022/11/22 06:54:21;;;;;;;5.60;1.52;;;;;;;9.24;63.17;99219.94;5141921;27;20057;-71
2022/11/22 06:56:48;;;;;;;4.55;1.63;;;;;;;9.20;63.11;99219.63;5138865;27;20048;-71
2022/11/22 06:59:16;;;;;;;9.38;2.10;;;;;;;9.20;63.10;99237.59;5122260;28;20051;-68
2022/11/22 07:01:44;;;;;;;7.40;1.75;;;;;;;9.16;62.75;99229.25;5122462;28;20074;-69
2022/11/22 07:04:12;;;;;;;5.18;2.00;;;;;;;9.12;62.76;99226.25;5125303;27;20089;-70
2022/11/22 07:06:39;;;;;;;6.75;2.47;;;;;;;9.09;63.20;99240.16;5123173;27;20062;-68
2022/11/22 07:09:09;;;;;;;10.82;3.22;;;;;;;9.08;63.16;99251.94;5140740;27;20107;-68
2022/11/22 07:11:40;;;;;;;7.43;2.33;;;;;;;9.08;62.82;99253.81;5137160;27;20116;-69
2022/11/22 07:14:07;;;;;;;6.10;2.33;;;;;;;9.04;63.57;99255.38;5144292;27;20079;-69
2022/11/22 07:16:37;;;;;;;5.93;2.20;;;;;;;8.99;63.49;99256.13;5142468;27;20077;-69
2022/11/22 07:19:05;;;;;;;8.93;1.90;;;;;;;9.00;63.33;99249.72;5142409;27;20385;-70
2022/11/22 07:21:34;;;;;;;7.22;1.77;;;;;;;8.99;63.86;99253.44;5146189;27;20142;-70
2022/11/22 07:24:01;;;;;;;7.80;2.30;;;;;;;8.96;63.21;99242.41;5145344;27;20134;-70
2022/11/22 07:26:29;;;;;;;8.60;2.00;;;;;;;8.87;63.93;99235.88;5143700;27;20040;-69
2022/11/22 07:28:58;;;;;;;5.15;2.20;;;;;;;8.93;63.00;99248.28;5139729;27;20062;-66
2022/11/22 07:31:27;;;;;;;7.53;1.80;;;;;;;8.93;64.12;99241.06;5145453;27;20057;-66
2022/11/22 07:33:56;;;;;;;10.00;2.42;;;;;;;8.97;64.25;99249.41;5146945;27;20101;-67
2022/11/22 07:36:28;;;;;;;7.10;1.88;;;;;;;8.95;64.24;99251.53;5143721;27;20110;-66
2022/11/22 07:38:56;;;;;;;7.75;1.60;;;;;;;8.99;63.65;99256.13;5143342;27;20047;-66
2022/11/22 07:41:24;;;;;;;4.72;1.77;;;;;;;8.97;63.03;99252.88;5146301;27;20054;-65
2022/11/22 07:43:52;;;;;;;9.40;2.03;;;;;;;8.95;63.61;99246.16;5145726;27;20055;-65
2022/11/22 07:46:24;;;;;;;7.82;2.05;;;;;;;8.95;63.96;99256.88;5136326;27;20067;-65
2022/11/22 07:48:52;;;;;;;7.15;2.78;;;;;;;8.92;63.45;99252.81;5144011;27;20108;-65
2022/11/22 07:51:20;;;;;;;4.57;1.73;;;;;;;8.91;63.37;99253.06;5145396;27;20138;-66
2022/11/22 07:53:48;;;;;;;6.18;2.30;;;;;;;8.93;63.46;99254.44;5145660;27;20051;-65
2022/11/22 07:56:16;;;;;;;9.95;2.00;;;;;;;8.94;63.50;99255.25;5141210;27;20702;-66
2022/11/22 07:58:44;;;;;;;6.68;2.17;;;;;;;8.86;63.61;99235.06;5145193;27;20125;-65
2022/11/22 08:01:13;;;;;;;5.65;2.20;;;;;;;8.95;64.30;99259.56;5143465;27;20471;-64
2022/11/22 08:03:43;;;;;;;5.25;1.55;;;;;;;9.01;63.67;99266.59;5145270;27;20115;-65
2022/11/22 08:06:12;;;;;;;9.50;2.03;;;;;;;9.02;64.13;99257.50;5129508;27;20082;-65
2022/11/22 08:08:40;;;;;;;8.50;2.13;;;;;;;9.02;64.02;99260.19;5125165;27;20053;-65
2022/11/22 08:11:08;;;;;;;5.60;1.95;;;;;;;9.02;64.56;99260.19;5139093;27;20111;-65
2022/11/22 08:13:37;;;;;;;7.38;1.95;;;;;;;9.02;63.83;99270.91;5138472;27;20068;-66
2022/11/22 08:16:07;;;;;;;9.48;1.92;;;;;;;8.99;63.58;99268.72;4782349;27;9999938;-65
2022/11/22 08:18:35;;;;;;;8.40;1.70;;;;;;;9.01;64.29;99263.91;5138176;27;20039;-66
2022/11/22 08:21:09;;;;;;;7.30;1.67;;;;;;;9.00;64.10;99265.78;5141325;27;20329;-66
2022/11/22 08:23:38;;;;;;;4.30;1.42;;;;;;;8.99;63.78;99271.41;5131581;27;20053;-66
2022/11/22 08:26:07;;;;;;;6.00;1.83;;;;;;;8.98;64.00;99265.22;5134959;27;20055;-66
2022/11/22 08:28:35;;;;;;;6.70;1.92;;;;;;;9.00;63.94;99271.16;5133950;27;20043;-66
2022/11/22 08:31:06;;;;;;;5.78;1.70;;;;;;;8.98;64.34;99273.25;5140868;27;20043;-66
2022/11/22 08:33:34;;;;;;;10.88;1.98;;;;;;;8.99;63.44;99272.22;5139604;27;20137;-66
2022/11/22 08:36:01;;;;;;;5.68;1.70;;;;;;;9.00;64.51;99278.38;5140710;27;20059;-66
2022/11/22 08:38:31;;;;;;;5.78;1.60;;;;;;;8.98;64.37;99281.31;5139610;27;20461;-66
2022/11/22 08:40:59;;;;;;;7.20;2.45;;;;;;;9.01;64.21;99278.13;5138038;27;20043;-66
2022/11/22 08:43:26;;;;;;;5.25;1.60;;;;;;;9.02;63.58;99284.28;5124286;27;20074;-66
2022/11/22 08:45:56;;;;;;;9.88;2.53;;;;;;;9.02;64.14;99274.38;5140891;27;20053;-66
2022/11/22 08:48:24;;;;;;;10.63;2.30;;;;;;;9.14;64.21;99282.28;5138248;27;20408;-66
2022/11/22 08:50:54;;;;;;;5.60;1.98;;;;;;;9.22;63.86;99281.03;5140680;27;20051;-66
2022/11/22 08:53:22;;;;;;;4.32;1.38;;;;;;;9.38;63.19;99277.47;5140577;27;20498;-66
2022/11/22 08:55:51;;;;;;;7.30;2.08;;;;;;;9.51;62.26;99271.69;5134936;27;20146;-66
2022/11/22 08:58:19;;;;;;;5.85;1.65;;;;;;;9.68;61.78;99276.94;5141225;27;20122;-66
2022/11/22 09:00:47;;;;;;;6.60;2.17;;;;;;;9.76;62.10;99277.31;5120506;27;20035;-66
2022/11/22 09:03:15;;;;;;;4.82;1.40;;;;;;;9.85;61.73;99274.97;5133681;27;20050;-66
2022/11/22 09:05:42;;;;;;;3.65;1.70;;;;;;;10.13;60.79;99271.16;5133607;27;20097;-66
2022/11/22 09:08:30;;;;;;;8.48;1.33;;;;;;;10.33;60.56;99273.22;5140053;27;20050;-66
2022/11/22 09:11:08;;;;;;;4.85;1.73;;;;;;;10.58;60.22;99276.03;5139270;27;20747;-66
2022/11/22 09:13:37;;;;;;;4.32;1.70;;;;;;;10.56;59.77;99277.34;5120928;27;20078;-66
2022/11/22 09:16:06;;;;;;;4.55;1.83;;;;;;;10.79;59.25;99279.63;5139705;27;20051;-66
2022/11/22 09:18:35;;;;;;;4.63;1.60;;;;;;;10.83;59.28;99287.97;5139688;27;20046;-66
2022/11/22 09:21:04;;;;;;;7.93;1.90;;;;;;;10.81;59.10;99284.72;5140384;27;20074;-66
2022/11/22 09:23:33;;;;;;;4.20;1.63;;;;;;;10.80;59.75;99283.13;5137656;27;20051;-66
2022/11/22 09:26:03;;;;;;;3.35;1.23;;;;;;;10.96;58.82;99282.13;5123310;27;20051;-68
2022/11/22 09:28:33;;;;;;;6.03;1.58;;;;;;;10.99;58.57;99281.59;5126186;27;20054;-65
2022/11/22 09:31:01;;;;;;;9.65;1.58;;;;;;;10.88;59.06;99282.63;5138934;27;20455;-64
2022/11/22 09:33:29;;;;;;;6.15;2.17;;;;;;;10.89;59.05;99289.63;5140143;27;20043;-64
2022/11/22 09:36:01;;;;;;;6.75;1.58;;;;;;;10.92;59.22;99281.84;5139947;27;20051;-64
2022/11/22 09:38:29;;;;;;;3.60;1.30;;;;;;;10.92;59.32;99276.47;5127640;27;20047;-64
2022/11/22 09:40:58;;;;;;;6.13;1.70;;;;;;;10.96;59.25;99282.13;5133546;27;20122;-64
2022/11/22 09:43:39;;;;;;;4.60;1.58;;;;;;;11.16;58.82;99274.13;5131171;27;20062;-65
2022/11/22 09:46:25;;;;;;;5.38;1.98;;;;;;;11.23;58.96;99269.31;5137459;27;20055;-65
2022/11/22 09:49:14;;;;;;;6.82;1.73;;;;;;;11.40;58.54;99291.41;5139676;27;20146;-66
2022/11/22 09:51:49;;;;;;;7.82;1.60;;;;;;;11.35;58.29;99288.72;5137604;27;20042;-64
2022/11/22 09:54:22;;;;;;;3.78;1.23;;;;;;;11.30;58.19;99288.69;5139208;27;20108;-64
2022/11/22 09:56:53;;;;;;;4.85;1.40;;;;;;;11.34;57.76;99288.97;5139529;27;20061;-63
2022/11/22 09:59:27;;;;;;;5.32;1.27;;;;;;;11.34;58.50;99291.66;5138960;27;20047;-64
2022/11/22 10:02:03;;;;;;;6.97;2.00;;;;;;;11.29;58.34;99284.38;5119635;28;20059;-64
2022/11/22 10:04:51;;;;;;;3.45;1.17;;;;;;;11.21;58.66;99289.47;5129799;28;20130;-63
2022/11/22 10:07:24;;;;;;;6.50;2.35;;;;;;;11.18;58.82;99293.50;5127851;28;20666;-63
2022/11/22 10:09:59;;;;;;;4.65;1.50;;;;;;;11.13;58.93;99289.97;5133328;28;20047;-64
2022/11/22 10:12:35;;;;;;;5.68;1.17;;;;;;;11.13;58.95;99285.41;5135808;28;20075;-62
2022/11/22 10:15:13;;;;;;;5.70;1.73;;;;;;;11.17;58.97;99289.19;5128724;27;20072;-63
2022/11/22 10:17:52;;;;;;;4.60;1.40;;;;;;;11.18;58.76;99288.13;5146797;27;20398;-63
2022/11/22 10:20:22;;;;;;;3.25;1.55;;;;;;;11.08;59.08;99288.88;5147526;27;20118;-63
2022/11/22 10:22:50;;;;;;;2.58;1.10;;;;;;;10.95;59.51;99280.50;5146706;27;20133;-63
2022/11/22 10:25:20;;;;;;;4.97;1.63;;;;;;;10.80;59.97;99283.13;5134781;27;20086;-63
2022/11/22 10:27:53;;;;;;;3.53;1.38;;;;;;;10.66;60.24;99280.91;5144917;27;20047;-63
2022/11/22 10:30:35;;;;;;;3.08;1.30;;;;;;;10.49;61.32;99282.94;5135017;27;20044;-63
2022/11/22 10:33:12;;;;;;;4.20;1.25;;;;;;;10.39;61.33;99278.34;5147578;27;20213;-63
2022/11/22 10:35:57;;;;;;;3.22;1.50;;;;;;;10.28;61.91;99278.53;5127529;28;20599;-63
2022/11/22 10:38:48;;;;;;;5.38;1.50;;;;;;;10.28;62.12;99268.63;5138704;27;20051;-63
2022/11/22 10:41:27;;;;;;;11.45;1.75;;;;;;;10.29;62.37;99272.09;5144849;27;20075;-63
2022/11/22 10:44:07;;;;;;;2.75;1.35;;;;;;;10.28;61.68;99263.25;5131998;27;20133;-63
2022/11/22 10:46:46;;;;;;;3.78;1.02;;;;;;;10.21;62.19;99256.47;5144130;27;20061;-63
2022/11/22 10:49:29;;;;;;;3.45;1.30;;;;;;;10.14;62.78;99255.88;5146648;27;20469;-63
2022/11/22 10:52:04;;;;;;;3.00;1.23;;;;;;;10.03;63.04;99261.16;5145463;27;20043;-63
2022/11/22 10:54:42;;;;;;;2.80;1.30;;;;;;;10.09;62.86;99265.50;5126248;28;20047;-63
2022/11/22 10:57:16;;;;;;;5.05;1.42;;;;;;;10.08;62.75;99255.81;5128074;27;20054;-63
2022/11/22 10:59:58;;;;;;;5.70;1.55;;;;;;;10.05;62.82;99250.16;5145844;27;20142;-63
2022/11/22 11:02:56;;;;;;;1.50;1.13;;;;;;;10.05;63.40;99255.53;5138749;27;20465;-63
2022/11/22 11:05:32;;;;;;;1.83;0.93;;;;;;;10.02;63.14;99254.16;5139998;27;20107;-62
2022/11/22 11:08:00;;;;;;;2.90;1.23;;;;;;;9.99;63.42;99246.63;5130979;27;20086;-63
2022/11/22 11:10:48;;;;;;;3.38;1.00;;;;;;;10.04;63.39;99243.19;5144095;27;20047;-63
2022/11/22 11:13:21;;;;;;;5.97;1.58;;;;;;;10.16;63.05;99243.81;5143025;27;20050;-64
2022/11/22 11:15:53;;;;;;;2.17;1.00;;;;;;;10.27;62.34;99242.84;5139141;27;20374;-64
2022/11/22 11:18:30;;;;;;;5.25;1.55;;;;;;;10.51;61.77;99240.53;5145820;27;20566;-63
2022/11/22 11:20:58;;;;;;;3.33;0.90;;;;;;;10.61;61.40;99237.09;5129040;27;20559;-64
2022/11/22 11:23:25;;;;;;;2.53;1.25;;;;;;;10.77;61.01;99238.75;5142567;27;20047;-64
2022/11/22 11:25:53;;;;;;;3.30;1.00;;;;;;;10.97;60.46;99232.66;5143408;27;20073;-64
2022/11/22 11:28:23;;;;;;;3.13;0.95;;;;;;;11.05;59.90;99232.16;5139879;27;20067;-64
2022/11/22 11:30:53;;;;;;;3.72;1.10;;;;;;;11.20;59.99;99220.63;5131425;27;20498;-62
2022/11/22 11:33:28;;;;;;;1.60;0.95;;;;;;;11.28;59.25;99215.53;5145853;27;20047;-63
2022/11/22 11:36:02;;;;;;;2.67;0.90;;;;;;;11.48;58.86;99219.34;5147038;27;20047;-62
2022/11/22 11:38:33;;;;;;;2.70;1.17;;;;;;;11.43;58.89;99222.81;4783267;27;9999965;-62
2022/11/22 11:41:26;;;;;;;3.15;1.15;;;;;;;11.41;59.54;99222.28;5131194;27;20078;-62
2022/11/22 11:43:55;;;;;;;1.77;0.95;;;;;;;11.30;59.86;99216.09;5122381;27;20145;-62
2022/11/22 11:46:24;;;;;;;2.65;1.27;;;;;;;11.10;59.83;99216.03;5142146;27;20043;-62
2022/11/22 11:48:55;;;;;;;3.15;0.82;;;;;;;10.99;60.64;99223.25;5140381;27;20055;-62
2022/11/22 11:51:38;;;;;;;4.78;1.10;;;;;;;10.84;60.80;99223.22;5135659;27;20054;-62
2022/11/22 11:54:11;;;;;;;1.55;1.05;;;;;;;10.78;61.44;99216.19;5141784;27;20065;-62
2022/11/22 11:56:51;;;;;;;1.13;0.98;;;;;;;10.69;61.23;99205.16;5141957;27;20625;-62
2022/11/22 11:59:21;;;;;;;0.75;0.70;;;;;;;10.64;61.34;99220.44;5140504;27;20039;-62
2022/11/22 12:01:54;;;;;;;5.70;1.30;;;;;;;10.40;62.00;99209.34;5129478;27;20082;-62
2022/11/22 12:04:27;;;;;;;2.17;0.90;;;;;;;10.44;62.17;99226.53;5142066;27;20119;-62
2022/11/22 12:07:01;;;;;;;2.08;0.95;;;;;;;10.39;62.26;99221.97;5143009;27;20170;-62
2022/11/22 12:09:36;;;;;;;2.15;1.00;;;;;;;10.33;62.66;99216.81;5133810;27;20488;-62
2022/11/22 12:12:35;;;;;;;3.00;1.02;;;;;;;10.30;62.90;99222.72;5136009;27;20122;-62